createdAt,value
2018-07-09T00:00:54.415Z,22.3
2018-07-09T00:01:54.429Z,22.3
2018-07-09T00:02:54.464Z,22.3
2018-07-09T00:03:54.508Z,22.3
2018-07-09T00:04:54.819Z,22.3
2018-07-09T00:05:54.746Z,22.3
2018-07-09T00:06:54.510Z,22.3
2018-07-09T00:07:54.452Z,22.3
2018-07-09T00:08:54.525Z,22.3
2018-07-09T00:09:54.461Z,22.29
2018-07-09T00:10:54.643Z,22.29
2018-07-09T00:11:54.514Z,22.29
2018-07-09T00:12:54.489Z,22.29
2018-07-09T00:13:54.382Z,22.29
2018-07-09T00:14:54.427Z,22.29
2018-07-09T00:15:54.453Z,22.29
2018-07-09T00:16:54.297Z,22.29
2018-07-09T00:17:54.538Z,22.29
2018-07-09T00:18:54.442Z,22.29
2018-07-09T00:19:54.537Z,22.29
2018-07-09T00:20:54.440Z,22.29
2018-07-09T00:21:54.456Z,22.29
2018-07-09T00:22:54.555Z,22.29
2018-07-09T00:23:54.364Z,22.29
2018-07-09T00:24:54.449Z,22.29
2018-07-09T00:25:54.332Z,22.28
2018-07-09T00:26:54.488Z,22.29
2018-07-09T00:27:54.610Z,22.28
2018-07-09T00:28:54.401Z,22.28
2018-07-09T00:29:54.580Z,22.28
2018-07-09T00:30:54.680Z,22.28
2018-07-09T00:31:54.600Z,22.28
2018-07-09T00:32:54.674Z,22.28
2018-07-09T00:33:54.504Z,22.28
2018-07-09T00:34:54.406Z,22.28
2018-07-09T00:35:54.580Z,22.28
2018-07-09T00:36:54.590Z,22.28
2018-07-09T00:37:54.431Z,22.27
2018-07-09T00:38:54.649Z,22.27
2018-07-09T00:39:54.360Z,22.27
2018-07-09T00:40:54.652Z,22.27
2018-07-09T00:41:54.653Z,22.27
2018-07-09T00:42:54.621Z,22.26
2018-07-09T00:43:54.486Z,22.27
2018-07-09T00:44:54.706Z,22.27
2018-07-09T00:45:54.426Z,22.27
2018-07-09T00:46:54.475Z,22.26
2018-07-09T00:47:54.463Z,22.27
2018-07-09T00:48:54.735Z,22.26
2018-07-09T00:49:54.578Z,22.26
2018-07-09T00:50:55.084Z,22.26
2018-07-09T00:51:54.479Z,22.26
2018-07-09T00:52:54.689Z,22.26
2018-07-09T00:53:54.341Z,22.26
2018-07-09T00:54:54.413Z,22.26
2018-07-09T00:55:54.675Z,22.26
2018-07-09T00:56:54.595Z,22.26
2018-07-09T00:57:54.695Z,22.26
2018-07-09T00:58:54.575Z,22.25
2018-07-09T00:59:54.672Z,22.25
2018-07-09T01:00:54.478Z,22.25
2018-07-09T01:01:54.519Z,22.25
2018-07-09T01:02:54.518Z,22.25
2018-07-09T01:03:54.390Z,22.25
2018-07-09T01:04:54.458Z,22.25
2018-07-09T01:05:54.492Z,22.25
2018-07-09T01:06:54.410Z,22.25
2018-07-09T01:07:54.633Z,22.24
2018-07-09T01:08:54.513Z,22.24
2018-07-09T01:09:54.518Z,22.24
2018-07-09T01:10:54.368Z,22.24
2018-07-09T01:11:54.679Z,22.24
2018-07-09T01:12:54.507Z,22.24
2018-07-09T01:13:54.563Z,22.24
2018-07-09T01:14:54.544Z,22.24
2018-07-09T01:15:54.563Z,22.24
2018-07-09T01:16:54.390Z,22.24
2018-07-09T01:17:54.559Z,22.24
2018-07-09T01:18:54.506Z,22.24
2018-07-09T01:19:54.591Z,22.24
2018-07-09T01:20:54.614Z,22.24
2018-07-09T01:21:54.426Z,22.24
2018-07-09T01:22:54.530Z,22.24
2018-07-09T01:23:54.410Z,22.24
2018-07-09T01:24:54.539Z,22.24
2018-07-09T01:25:54.352Z,22.24
2018-07-09T01:26:54.573Z,22.24
2018-07-09T01:27:54.351Z,22.24
2018-07-09T01:28:54.552Z,22.23
2018-07-09T01:29:54.432Z,22.24
2018-07-09T01:30:54.429Z,22.24
2018-07-09T01:31:54.615Z,22.24
2018-07-09T01:32:54.397Z,22.24
2018-07-09T01:33:54.524Z,22.23
2018-07-09T01:34:54.444Z,22.23
2018-07-09T01:35:54.521Z,22.23
2018-07-09T01:36:54.632Z,22.23
2018-07-09T01:37:54.349Z,22.23
2018-07-09T01:38:54.518Z,22.23
2018-07-09T01:40:04.377Z,22.22
2018-07-09T01:40:54.405Z,22.22
2018-07-09T01:41:54.538Z,22.23
2018-07-09T01:42:54.576Z,22.22
2018-07-09T01:43:54.525Z,22.22
2018-07-09T01:44:54.615Z,22.22
2018-07-09T01:45:54.354Z,22.22
2018-07-09T01:46:54.657Z,22.22
2018-07-09T01:47:54.536Z,22.22
2018-07-09T01:48:54.278Z,22.22
2018-07-09T01:49:54.724Z,22.22
2018-07-09T01:50:54.629Z,22.22
2018-07-09T01:51:54.609Z,22.21
2018-07-09T01:52:54.464Z,22.21
2018-07-09T01:53:54.561Z,22.21
2018-07-09T01:54:54.441Z,22.21
2018-07-09T01:55:54.502Z,22.21
2018-07-09T01:56:54.535Z,22.21
2018-07-09T01:57:54.355Z,22.21
2018-07-09T01:58:54.367Z,22.21
2018-07-09T01:59:54.466Z,22.21
2018-07-09T02:00:54.476Z,22.21
2018-07-09T02:01:54.694Z,22.21
2018-07-09T02:02:54.729Z,22.21
2018-07-09T02:03:54.719Z,22.21
2018-07-09T02:04:54.716Z,22.2
2018-07-09T02:05:54.447Z,22.21
2018-07-09T02:06:54.424Z,22.2
2018-07-09T02:07:54.331Z,22.2
2018-07-09T02:08:54.539Z,22.2
2018-07-09T02:09:54.654Z,22.2
2018-07-09T02:10:54.424Z,22.2
2018-07-09T02:11:54.456Z,22.2
2018-07-09T02:12:54.622Z,22.2
2018-07-09T02:13:54.391Z,22.2
2018-07-09T02:14:54.665Z,22.2
2018-07-09T02:15:54.500Z,22.2
2018-07-09T02:16:54.513Z,22.2
2018-07-09T02:17:54.661Z,22.19
2018-07-09T02:18:54.820Z,22.2
2018-07-09T02:19:54.492Z,22.19
2018-07-09T02:20:54.515Z,22.2
2018-07-09T02:21:54.712Z,22.19
2018-07-09T02:22:54.591Z,22.19
2018-07-09T02:23:54.540Z,22.19
2018-07-09T02:24:54.501Z,22.19
2018-07-09T02:25:54.499Z,22.19
2018-07-09T02:26:54.311Z,22.19
2018-07-09T02:27:54.372Z,22.19
2018-07-09T02:28:54.368Z,22.19
2018-07-09T02:29:54.369Z,22.19
2018-07-09T02:30:54.420Z,22.19
2018-07-09T02:31:54.599Z,22.18
2018-07-09T02:32:54.726Z,22.18
2018-07-09T02:33:54.277Z,22.18
2018-07-09T02:34:54.717Z,22.18
2018-07-09T02:35:54.507Z,22.18
2018-07-09T02:36:54.628Z,22.18
2018-07-09T02:37:54.404Z,22.18
2018-07-09T02:38:54.451Z,22.18
2018-07-09T02:39:54.547Z,22.18
2018-07-09T02:40:54.561Z,22.18
2018-07-09T02:41:54.416Z,22.18
2018-07-09T02:42:54.378Z,22.18
2018-07-09T02:43:54.445Z,22.18
2018-07-09T02:44:54.506Z,22.18
2018-07-09T02:45:54.384Z,22.18
2018-07-09T02:46:54.467Z,22.18
2018-07-09T02:47:54.577Z,22.18
2018-07-09T02:48:54.435Z,22.18
2018-07-09T02:49:54.551Z,22.18
2018-07-09T02:50:54.364Z,22.18
2018-07-09T02:51:54.293Z,22.18
2018-07-09T02:52:54.405Z,22.18
2018-07-09T02:53:54.408Z,22.17
2018-07-09T02:54:54.439Z,22.18
2018-07-09T02:55:54.457Z,22.17
2018-07-09T02:56:54.554Z,22.17
2018-07-09T02:57:54.472Z,22.17
2018-07-09T02:58:54.506Z,22.17
2018-07-09T02:59:54.532Z,22.17
2018-07-09T03:00:55.285Z,22.17
2018-07-09T03:01:54.386Z,22.17
2018-07-09T03:02:54.556Z,22.17
2018-07-09T03:03:54.435Z,22.16
2018-07-09T03:04:54.670Z,22.17
2018-07-09T03:05:54.815Z,22.17
2018-07-09T03:06:54.467Z,22.17
2018-07-09T03:07:54.649Z,22.16
2018-07-09T03:08:54.373Z,22.17
2018-07-09T03:09:54.288Z,22.16
2018-07-09T03:10:54.354Z,22.17
2018-07-09T03:11:54.564Z,22.16
2018-07-09T03:12:54.497Z,22.16
2018-07-09T03:13:54.559Z,22.16
2018-07-09T03:14:54.435Z,22.16
2018-07-09T03:15:54.678Z,22.16
2018-07-09T03:16:54.552Z,22.16
2018-07-09T03:17:54.517Z,22.16
2018-07-09T03:18:54.327Z,22.16
2018-07-09T03:19:54.495Z,22.16
2018-07-09T03:20:54.325Z,22.16
2018-07-09T03:21:54.739Z,22.16
2018-07-09T03:22:54.710Z,22.15
2018-07-09T03:23:54.345Z,22.15
2018-07-09T03:24:54.410Z,22.15
2018-07-09T03:25:54.575Z,22.15
2018-07-09T03:26:54.404Z,22.15
2018-07-09T03:28:26.224Z,22.15
2018-07-09T03:28:54.616Z,22.15
2018-07-09T03:29:54.387Z,22.15
2018-07-09T03:30:54.398Z,22.15
2018-07-09T03:31:54.417Z,22.15
2018-07-09T03:32:54.661Z,22.15
2018-07-09T03:33:54.439Z,22.15
2018-07-09T03:35:04.351Z,22.15
2018-07-09T03:35:54.432Z,22.14
2018-07-09T03:36:54.375Z,22.15
2018-07-09T03:37:54.522Z,22.14
2018-07-09T03:38:54.543Z,22.14
2018-07-09T03:39:54.404Z,22.14
2018-07-09T03:40:54.290Z,22.14
2018-07-09T03:41:54.463Z,22.14
2018-07-09T03:42:54.418Z,22.14
2018-07-09T03:43:54.464Z,22.14
2018-07-09T03:44:54.709Z,22.14
2018-07-09T03:45:54.354Z,22.14
2018-07-09T03:46:54.439Z,22.14
2018-07-09T03:47:54.706Z,22.13
2018-07-09T03:48:54.575Z,22.13
2018-07-09T03:49:54.394Z,22.14
2018-07-09T03:50:54.421Z,22.14
2018-07-09T03:51:54.438Z,22.14
2018-07-09T03:52:54.307Z,22.13
2018-07-09T03:53:54.395Z,22.14
2018-07-09T03:54:54.455Z,22.13
2018-07-09T03:55:54.455Z,22.14
2018-07-09T03:56:54.575Z,22.13
2018-07-09T03:57:54.561Z,22.13
2018-07-09T03:58:54.454Z,22.13
2018-07-09T03:59:54.348Z,22.13
2018-07-09T04:00:54.442Z,22.13
2018-07-09T04:01:54.264Z,22.13
2018-07-09T04:02:54.403Z,22.13
2018-07-09T04:03:54.499Z,22.13
2018-07-09T04:04:54.505Z,22.13
2018-07-09T04:05:54.474Z,22.13
2018-07-09T04:06:54.457Z,22.13
2018-07-09T04:07:54.530Z,22.13
2018-07-09T04:08:54.590Z,22.12
2018-07-09T04:09:54.451Z,22.13
2018-07-09T04:10:54.311Z,22.13
2018-07-09T04:11:54.346Z,22.13
2018-07-09T04:12:54.401Z,22
2018-07-09T04:13:54.445Z,21.82
2018-07-09T04:14:54.513Z,21.74
2018-07-09T04:15:54.713Z,21.7
2018-07-09T04:16:54.622Z,21.63
2018-07-09T04:17:54.531Z,21.55
2018-07-09T04:18:54.319Z,21.49
2018-07-09T04:19:54.331Z,21.43
2018-07-09T04:20:54.950Z,21.36
2018-07-09T04:21:54.747Z,21.25
2018-07-09T04:22:54.313Z,21.16
2018-07-09T04:23:54.506Z,21.13
2018-07-09T04:24:54.599Z,21.01
2018-07-09T04:25:54.656Z,20.93
2018-07-09T04:26:54.452Z,20.95
2018-07-09T04:27:54.361Z,20.84
2018-07-09T04:28:54.334Z,20.79
2018-07-09T04:29:54.331Z,20.79
2018-07-09T04:30:54.446Z,20.68
2018-07-09T04:31:54.397Z,20.76
2018-07-09T04:32:54.587Z,20.77
2018-07-09T04:33:54.445Z,20.71
2018-07-09T04:34:54.418Z,20.68
2018-07-09T04:35:54.531Z,20.61
2018-07-09T04:36:54.632Z,20.53
2018-07-09T04:37:55.000Z,20.54
2018-07-09T04:38:54.394Z,20.54
2018-07-09T04:39:54.373Z,20.46
2018-07-09T04:40:54.471Z,20.42
2018-07-09T04:41:54.558Z,20.45
2018-07-09T04:42:54.753Z,20.43
2018-07-09T04:43:54.309Z,20.44
2018-07-09T04:44:54.378Z,20.44
2018-07-09T04:45:54.343Z,20.43
2018-07-09T04:46:54.477Z,20.45
2018-07-09T04:47:54.618Z,20.42
2018-07-09T04:48:54.225Z,20.45
2018-07-09T04:49:54.360Z,20.43
2018-07-09T04:50:54.430Z,20.37
2018-07-09T04:51:54.456Z,20.4
2018-07-09T04:52:54.484Z,20.35
2018-07-09T04:53:54.497Z,20.33
2018-07-09T04:54:54.363Z,20.36
2018-07-09T04:55:54.554Z,20.41
2018-07-09T04:56:54.531Z,20.39
2018-07-09T04:58:04.384Z,20.38
2018-07-09T04:58:54.486Z,20.38
2018-07-09T04:59:54.490Z,20.38
2018-07-09T05:00:54.491Z,20.41
2018-07-09T05:01:54.541Z,20.38
2018-07-09T05:02:54.302Z,20.35
2018-07-09T05:03:54.502Z,20.41
2018-07-09T05:04:54.399Z,20.4
2018-07-09T05:05:54.501Z,20.41
2018-07-09T05:06:54.332Z,20.44
2018-07-09T05:07:54.457Z,20.48
2018-07-09T05:08:54.523Z,20.52
2018-07-09T05:09:54.503Z,20.54
2018-07-09T05:10:54.326Z,20.58
2018-07-09T05:11:54.370Z,20.6
2018-07-09T05:12:54.537Z,20.64
2018-07-09T05:13:54.390Z,20.67
2018-07-09T05:14:54.468Z,20.69
2018-07-09T05:15:54.291Z,20.73
2018-07-09T05:16:54.350Z,20.75
2018-07-09T05:17:54.382Z,20.77
2018-07-09T05:18:54.435Z,20.8
2018-07-09T05:19:54.397Z,20.83
2018-07-09T05:20:54.499Z,20.85
2018-07-09T05:21:54.489Z,20.87
2018-07-09T05:22:54.504Z,20.89
2018-07-09T05:23:54.477Z,20.91
2018-07-09T05:24:54.357Z,20.93
2018-07-09T05:25:54.648Z,20.95
2018-07-09T05:26:54.457Z,20.96
2018-07-09T05:27:54.497Z,20.97
2018-07-09T05:28:54.348Z,21
2018-07-09T05:29:54.466Z,21.01
2018-07-09T05:30:54.412Z,21.03
2018-07-09T05:31:54.728Z,21.05
2018-07-09T05:32:54.463Z,21.06
2018-07-09T05:33:54.330Z,21.07
2018-07-09T05:34:54.376Z,21.09
2018-07-09T05:35:54.571Z,21.1
2018-07-09T05:36:54.465Z,21.12
2018-07-09T05:37:54.626Z,21.13
2018-07-09T05:38:54.465Z,21.13
2018-07-09T05:39:54.812Z,21.14
2018-07-09T05:40:54.508Z,21.15
2018-07-09T05:41:54.627Z,21.17
2018-07-09T05:42:54.301Z,21.17
2018-07-09T05:43:54.564Z,21.18
2018-07-09T05:44:54.487Z,21.18
2018-07-09T05:45:54.464Z,21.19
2018-07-09T05:46:54.602Z,21.2
2018-07-09T05:47:54.661Z,21.2
2018-07-09T05:48:54.498Z,21.21
2018-07-09T05:49:54.267Z,21.23
2018-07-09T05:50:54.535Z,21.23
2018-07-09T05:51:54.341Z,21.24
2018-07-09T05:52:54.505Z,21.24
2018-07-09T05:53:54.470Z,21.24
2018-07-09T05:54:54.359Z,21.25
2018-07-09T05:55:54.606Z,21.26
2018-07-09T05:56:54.498Z,21.27
2018-07-09T05:57:54.490Z,21.27
2018-07-09T05:58:54.756Z,21.28
2018-07-09T05:59:54.635Z,21.28
2018-07-09T06:00:54.292Z,21.29
2018-07-09T06:01:54.616Z,21.29
2018-07-09T06:02:54.548Z,21.3
2018-07-09T06:03:54.489Z,21.3
2018-07-09T06:04:54.354Z,21.3
2018-07-09T06:05:54.460Z,21.3
2018-07-09T06:06:54.501Z,21.3
2018-07-09T06:07:54.286Z,21.31
2018-07-09T06:08:54.535Z,21.31
2018-07-09T06:09:54.285Z,21.32
2018-07-09T06:10:54.518Z,21.32
2018-07-09T06:11:54.325Z,21.32
2018-07-09T06:12:54.659Z,21.33
2018-07-09T06:13:54.496Z,21.33
2018-07-09T06:14:54.312Z,21.34
2018-07-09T06:15:54.352Z,21.34
2018-07-09T06:16:54.425Z,21.34
2018-07-09T06:17:54.549Z,21.35
2018-07-09T06:18:54.226Z,21.35
2018-07-09T06:19:54.429Z,21.35
2018-07-09T06:20:54.383Z,21.36
2018-07-09T06:21:54.545Z,21.36
2018-07-09T06:22:54.374Z,21.36
2018-07-09T06:23:54.337Z,21.36
2018-07-09T06:24:54.365Z,21.36
2018-07-09T06:25:54.424Z,21.37
2018-07-09T06:26:54.518Z,21.36
2018-07-09T06:28:04.381Z,21.37
2018-07-09T06:28:54.357Z,21.37
2018-07-09T06:29:54.382Z,21.37
2018-07-09T06:30:54.444Z,21.38
2018-07-09T06:31:54.367Z,21.38
2018-07-09T06:32:54.389Z,21.39
2018-07-09T06:33:54.549Z,21.39
2018-07-09T06:34:54.513Z,21.39
2018-07-09T06:35:55.048Z,21.4
2018-07-09T06:36:54.389Z,21.4
2018-07-09T06:37:54.399Z,21.4
2018-07-09T06:38:54.253Z,21.4
2018-07-09T06:39:54.592Z,21.4
2018-07-09T06:40:54.360Z,21.41
2018-07-09T06:41:54.474Z,21.41
2018-07-09T06:42:54.415Z,21.41
2018-07-09T06:43:54.361Z,21.42
2018-07-09T06:44:54.645Z,21.42
2018-07-09T06:45:54.498Z,21.42
2018-07-09T06:46:54.653Z,21.42
2018-07-09T06:47:54.349Z,21.43
2018-07-09T06:48:54.318Z,21.42
2018-07-09T06:49:54.827Z,21.42
2018-07-09T06:50:54.458Z,21.43
2018-07-09T06:51:54.429Z,21.43
2018-07-09T06:52:54.349Z,21.43
2018-07-09T06:53:54.717Z,21.43
2018-07-09T06:54:54.382Z,21.43
2018-07-09T06:55:54.857Z,21.44
2018-07-09T06:56:54.259Z,21.44
2018-07-09T06:57:54.483Z,21.44
2018-07-09T06:58:54.481Z,21.45
2018-07-09T06:59:54.508Z,21.44
2018-07-09T07:00:54.354Z,21.45
2018-07-09T07:01:54.724Z,21.45
2018-07-09T07:02:54.445Z,21.45
2018-07-09T07:03:54.416Z,21.46
2018-07-09T07:04:54.668Z,21.46
2018-07-09T07:06:26.178Z,21.46
2018-07-09T07:06:54.451Z,21.46
2018-07-09T07:07:54.528Z,21.46
2018-07-09T07:08:55.051Z,21.47
2018-07-09T07:09:54.561Z,21.47
2018-07-09T07:10:54.526Z,21.47
2018-07-09T07:11:54.502Z,21.48
2018-07-09T07:12:54.356Z,21.48
2018-07-09T07:13:54.589Z,21.48
2018-07-09T07:14:54.514Z,21.48
2018-07-09T07:15:54.261Z,21.48
2018-07-09T07:16:54.387Z,21.48
2018-07-09T07:17:54.642Z,21.48
2018-07-09T07:18:54.340Z,21.48
2018-07-09T07:19:54.633Z,21.48
2018-07-09T07:20:54.647Z,21.48
2018-07-09T07:21:54.291Z,21.49
2018-07-09T07:22:54.295Z,21.48
2018-07-09T07:23:54.617Z,21.48
2018-07-09T07:24:54.392Z,21.49
2018-07-09T07:25:54.557Z,21.49
2018-07-09T07:26:54.368Z,21.49
2018-07-09T07:27:54.631Z,21.49
2018-07-09T07:28:54.451Z,21.49
2018-07-09T07:29:54.293Z,21.49
2018-07-09T07:30:54.281Z,21.5
2018-07-09T07:31:54.409Z,21.5
2018-07-09T07:32:54.319Z,21.5
2018-07-09T07:33:54.303Z,21.5
2018-07-09T07:34:54.438Z,21.5
2018-07-09T07:35:54.450Z,21.51
2018-07-09T07:36:54.319Z,21.51
2018-07-09T07:37:54.386Z,21.51
2018-07-09T07:38:54.450Z,21.52
2018-07-09T07:39:54.273Z,21.51
2018-07-09T07:40:54.319Z,21.51
2018-07-09T07:41:54.331Z,21.51
2018-07-09T07:42:54.258Z,21.52
2018-07-09T07:43:54.500Z,21.52
2018-07-09T07:44:54.768Z,21.52
2018-07-09T07:45:54.311Z,21.52
2018-07-09T07:46:54.512Z,21.52
2018-07-09T07:47:54.309Z,21.52
2018-07-09T07:48:54.232Z,21.53
2018-07-09T07:49:54.521Z,21.53
2018-07-09T07:50:54.257Z,21.53
2018-07-09T07:51:54.454Z,21.53
2018-07-09T07:52:54.383Z,21.53
2018-07-09T07:53:54.308Z,21.53
2018-07-09T07:54:54.370Z,21.54
2018-07-09T07:55:55.048Z,21.54
2018-07-09T07:56:54.296Z,21.54
2018-07-09T07:57:54.191Z,21.54
2018-07-09T07:58:54.455Z,21.54
2018-07-09T07:59:54.292Z,21.54
2018-07-09T08:00:54.445Z,21.54
2018-07-09T08:01:54.245Z,21.54
2018-07-09T08:02:54.918Z,21.54
2018-07-09T08:03:54.458Z,21.54
2018-07-09T08:04:54.313Z,21.54
2018-07-09T08:05:54.438Z,21.55
2018-07-09T08:06:54.304Z,21.55
2018-07-09T08:07:54.372Z,21.54
2018-07-09T08:08:54.324Z,21.55
2018-07-09T08:09:54.371Z,21.55
2018-07-09T08:10:54.379Z,21.55
2018-07-09T08:11:54.286Z,21.55
2018-07-09T08:13:29.710Z,21.56
2018-07-09T08:13:54.462Z,21.56
2018-07-09T08:14:54.523Z,21.56
2018-07-09T08:15:54.253Z,21.57
2018-07-09T08:16:54.483Z,21.56
2018-07-09T08:17:54.432Z,21.56
2018-07-09T08:18:54.350Z,21.56
2018-07-09T08:19:54.385Z,21.56
2018-07-09T08:20:55.084Z,21.57
2018-07-09T08:21:54.456Z,21.57
2018-07-09T08:22:54.510Z,21.57
2018-07-09T08:23:54.358Z,21.57
2018-07-09T08:24:55.218Z,21.57
2018-07-09T08:25:54.372Z,21.57
2018-07-09T08:26:54.418Z,21.58
2018-07-09T08:27:54.381Z,21.58
2018-07-09T08:28:54.352Z,21.58
2018-07-09T08:29:54.548Z,21.58
2018-07-09T08:30:54.283Z,21.58
2018-07-09T08:31:54.308Z,21.58
2018-07-09T08:32:54.507Z,21.59
2018-07-09T08:33:54.264Z,21.58
2018-07-09T08:34:54.463Z,21.59
2018-07-09T08:35:54.478Z,21.59
2018-07-09T08:36:54.437Z,21.59
2018-07-09T08:37:54.778Z,21.6
2018-07-09T08:38:54.340Z,21.59
2018-07-09T08:39:54.308Z,21.6
2018-07-09T08:40:54.265Z,21.6
2018-07-09T08:41:54.367Z,21.6
2018-07-09T08:42:54.224Z,21.6
2018-07-09T08:43:54.426Z,21.6
2018-07-09T08:44:54.692Z,21.6
2018-07-09T08:45:54.428Z,21.6
2018-07-09T08:46:54.464Z,21.6
2018-07-09T08:47:54.399Z,21.6
2018-07-09T08:48:54.394Z,21.6
2018-07-09T08:49:54.311Z,21.6
2018-07-09T08:50:54.465Z,21.6
2018-07-09T08:51:54.217Z,21.6
2018-07-09T08:52:54.246Z,21.6
2018-07-09T08:53:54.371Z,21.6
2018-07-09T08:54:54.401Z,21.6
2018-07-09T08:55:54.426Z,21.6
2018-07-09T08:56:54.411Z,21.61
2018-07-09T08:57:54.453Z,21.62
2018-07-09T08:58:54.329Z,21.62
2018-07-09T08:59:54.416Z,21.63
2018-07-09T09:00:54.225Z,21.64
2018-07-09T09:01:54.413Z,21.65
2018-07-09T09:02:54.502Z,21.65
2018-07-09T09:03:54.859Z,21.66
2018-07-09T09:04:54.461Z,21.67
2018-07-09T09:05:54.350Z,21.67
2018-07-09T09:06:54.395Z,21.67
2018-07-09T09:07:54.481Z,21.68
2018-07-09T09:08:54.473Z,21.7
2018-07-09T09:09:54.270Z,21.71
2018-07-09T09:10:54.688Z,21.71
2018-07-09T09:11:54.453Z,21.71
2018-07-09T09:12:54.518Z,21.72
2018-07-09T09:13:54.360Z,21.73
2018-07-09T09:14:54.371Z,21.73
2018-07-09T09:15:54.462Z,21.74
2018-07-09T09:16:54.646Z,21.75
2018-07-09T09:17:54.468Z,21.75
2018-07-09T09:18:54.472Z,21.75
2018-07-09T09:19:54.304Z,21.75
2018-07-09T09:20:54.474Z,21.76
2018-07-09T09:21:54.468Z,21.77
2018-07-09T09:22:54.761Z,21.77
2018-07-09T09:23:54.310Z,21.79
2018-07-09T09:24:54.521Z,21.79
2018-07-09T09:25:54.483Z,21.8
2018-07-09T09:26:54.483Z,21.8
2018-07-09T09:27:54.550Z,21.81
2018-07-09T09:28:54.343Z,21.81
2018-07-09T09:30:04.458Z,21.81
2018-07-09T09:30:54.351Z,21.81
2018-07-09T09:31:54.431Z,21.82
2018-07-09T09:32:54.596Z,21.83
2018-07-09T09:33:54.847Z,21.83
2018-07-09T09:34:54.360Z,21.83
2018-07-09T09:35:54.306Z,21.83
2018-07-09T09:36:54.499Z,21.84
2018-07-09T09:37:54.290Z,21.84
2018-07-09T09:38:54.217Z,21.84
2018-07-09T09:39:54.433Z,21.85
2018-07-09T09:40:54.697Z,21.85
2018-07-09T09:41:54.341Z,21.85
2018-07-09T09:42:54.354Z,21.85
2018-07-09T09:43:54.476Z,21.86
2018-07-09T09:44:54.179Z,21.87
2018-07-09T09:45:55.108Z,21.87
2018-07-09T09:46:54.328Z,21.88
2018-07-09T09:47:54.211Z,21.88
2018-07-09T09:48:55.028Z,21.89
2018-07-09T09:49:54.478Z,21.89
2018-07-09T09:50:54.408Z,21.89
2018-07-09T09:51:54.438Z,21.89
2018-07-09T09:52:54.460Z,21.89
2018-07-09T09:53:54.449Z,21.88
2018-07-09T09:54:54.768Z,21.88
2018-07-09T09:55:54.415Z,21.87
2018-07-09T09:56:54.518Z,21.85
2018-07-09T09:57:54.296Z,21.86
2018-07-09T09:58:54.516Z,21.86
2018-07-09T09:59:54.317Z,21.86
2018-07-09T10:00:54.431Z,21.87
2018-07-09T10:01:54.230Z,21.86
2018-07-09T10:02:54.261Z,21.85
2018-07-09T10:03:54.402Z,21.85
2018-07-09T10:04:54.354Z,21.84
2018-07-09T10:05:54.199Z,21.84
2018-07-09T10:06:54.379Z,21.84
2018-07-09T10:07:54.477Z,21.84
2018-07-09T10:08:54.329Z,21.84
2018-07-09T10:09:54.282Z,21.84
2018-07-09T10:10:54.321Z,21.84
2018-07-09T10:11:54.381Z,21.84
2018-07-09T10:12:54.272Z,21.84
2018-07-09T10:13:54.428Z,21.84
2018-07-09T10:14:54.212Z,21.85
2018-07-09T10:15:54.427Z,21.84
2018-07-09T10:16:54.977Z,21.84
2018-07-09T10:17:54.415Z,21.84
2018-07-09T10:18:54.374Z,21.84
2018-07-09T10:19:54.341Z,21.84
2018-07-09T10:20:54.335Z,21.84
2018-07-09T10:21:54.174Z,21.84
2018-07-09T10:22:55.115Z,21.84
2018-07-09T10:23:54.175Z,21.84
2018-07-09T10:24:54.786Z,21.85
2018-07-09T10:25:54.246Z,21.83
2018-07-09T10:26:54.412Z,21.84
2018-07-09T10:27:54.330Z,21.83
2018-07-09T10:28:54.418Z,21.83
2018-07-09T10:29:54.263Z,21.83
2018-07-09T10:30:54.248Z,21.83
2018-07-09T10:31:54.291Z,21.83
2018-07-09T10:32:54.424Z,21.84
2018-07-09T10:33:54.353Z,21.83
2018-07-09T10:34:54.351Z,21.83
2018-07-09T10:35:54.290Z,21.83
2018-07-09T10:36:54.411Z,21.83
2018-07-09T10:37:54.559Z,21.83
2018-07-09T10:38:54.432Z,21.83
2018-07-09T10:39:54.484Z,21.84
2018-07-09T10:40:54.418Z,21.83
2018-07-09T10:41:54.325Z,21.83
2018-07-09T10:42:54.208Z,21.83
2018-07-09T10:43:54.638Z,21.83
2018-07-09T10:44:54.452Z,21.83
2018-07-09T10:45:54.351Z,21.83
2018-07-09T10:46:54.517Z,21.83
2018-07-09T10:47:54.490Z,21.83
2018-07-09T10:48:54.360Z,21.83
2018-07-09T10:49:54.446Z,21.82
2018-07-09T10:50:54.174Z,21.8
2018-07-09T10:51:54.280Z,21.8
2018-07-09T10:52:54.406Z,21.81
2018-07-09T10:53:54.411Z,21.81
2018-07-09T10:54:54.419Z,21.81
2018-07-09T10:55:54.236Z,21.81
2018-07-09T10:56:54.511Z,21.81
2018-07-09T10:57:54.401Z,21.82
2018-07-09T10:58:54.439Z,21.82
2018-07-09T10:59:54.277Z,21.82
2018-07-09T11:00:54.449Z,21.81
2018-07-09T11:01:54.474Z,21.81
2018-07-09T11:02:54.409Z,21.8
2018-07-09T11:03:54.195Z,21.79
2018-07-09T11:04:54.327Z,21.79
2018-07-09T11:05:54.281Z,21.79
2018-07-09T11:06:54.264Z,21.79
2018-07-09T11:07:54.286Z,21.79
2018-07-09T11:08:54.177Z,21.79
2018-07-09T11:09:54.400Z,21.79
2018-07-09T11:10:54.244Z,21.79
2018-07-09T11:11:54.435Z,21.79
2018-07-09T11:12:54.235Z,21.79
2018-07-09T11:13:54.330Z,21.79
2018-07-09T11:14:54.413Z,21.79
2018-07-09T11:15:54.297Z,21.79
2018-07-09T11:16:59.096Z,21.8
2018-07-09T11:17:54.151Z,21.8
2018-07-09T11:18:54.347Z,21.8
2018-07-09T11:19:54.301Z,21.8
2018-07-09T11:20:54.372Z,21.79
2018-07-09T11:21:54.467Z,21.8
2018-07-09T11:22:54.392Z,21.8
2018-07-09T11:23:54.671Z,21.8
2018-07-09T11:24:54.255Z,21.8
2018-07-09T11:25:54.299Z,21.81
2018-07-09T11:26:54.251Z,21.8
2018-07-09T11:27:54.344Z,21.8
2018-07-09T11:28:54.554Z,21.8
2018-07-09T11:29:54.470Z,21.81
2018-07-09T11:30:54.365Z,21.81
2018-07-09T11:31:54.279Z,21.81
2018-07-09T11:32:54.410Z,21.81
2018-07-09T11:33:54.488Z,21.81
2018-07-09T11:34:54.330Z,21.81
2018-07-09T11:35:54.258Z,21.81
2018-07-09T11:36:54.485Z,21.81
2018-07-09T11:37:54.258Z,21.81
2018-07-09T11:38:54.588Z,21.81
2018-07-09T11:39:54.225Z,21.81
2018-07-09T11:40:54.388Z,21.81
2018-07-09T11:41:54.226Z,21.81
2018-07-09T11:42:54.300Z,21.81
2018-07-09T11:43:54.653Z,21.81
2018-07-09T11:44:54.347Z,21.81
2018-07-09T11:45:54.289Z,21.81
2018-07-09T11:46:54.235Z,21.81
2018-07-09T11:47:54.242Z,21.8
2018-07-09T11:48:54.548Z,21.81
2018-07-09T11:49:54.333Z,21.81
2018-07-09T11:50:54.409Z,21.81
2018-07-09T11:51:54.340Z,21.81
2018-07-09T11:52:54.393Z,21.81
2018-07-09T11:54:04.297Z,21.81
2018-07-09T11:54:54.311Z,21.81
2018-07-09T11:55:54.342Z,21.81
2018-07-09T11:56:54.295Z,21.81
2018-07-09T11:57:54.262Z,21.81
2018-07-09T11:58:54.836Z,21.8
2018-07-09T11:59:54.217Z,21.81
2018-07-09T12:00:54.260Z,21.81
2018-07-09T12:01:54.574Z,21.81
2018-07-09T12:02:54.402Z,21.81
2018-07-09T12:03:54.474Z,21.81
2018-07-09T12:04:54.703Z,21.81
2018-07-09T12:05:54.292Z,21.81
2018-07-09T12:06:54.341Z,21.81
2018-07-09T12:07:54.461Z,21.81
2018-07-09T12:08:54.309Z,21.81
2018-07-09T12:09:54.361Z,21.81
2018-07-09T12:10:54.301Z,21.81
2018-07-09T12:11:54.279Z,21.81
2018-07-09T12:12:54.267Z,21.81
2018-07-09T12:13:54.446Z,21.81
2018-07-09T12:14:54.251Z,21.81
2018-07-09T12:15:54.290Z,21.81
2018-07-09T12:16:54.445Z,21.81
2018-07-09T12:17:54.273Z,21.81
2018-07-09T12:18:54.280Z,21.81
2018-07-09T12:19:54.261Z,21.81
2018-07-09T12:20:54.280Z,21.81
2018-07-09T12:21:54.588Z,21.81
2018-07-09T12:22:54.514Z,21.81
2018-07-09T12:23:54.229Z,21.81
2018-07-09T12:24:54.290Z,21.81
2018-07-09T12:25:54.466Z,21.81
2018-07-09T12:26:54.456Z,21.81
2018-07-09T12:27:54.389Z,21.81
2018-07-09T12:28:54.905Z,21.81
2018-07-09T12:29:54.224Z,21.81
2018-07-09T12:30:54.380Z,21.81
2018-07-09T12:31:54.225Z,21.81
2018-07-09T12:32:54.281Z,21.81
2018-07-09T12:33:54.219Z,21.81
2018-07-09T12:34:54.275Z,21.81
2018-07-09T12:35:54.167Z,21.81
2018-07-09T12:36:54.358Z,21.81
2018-07-09T12:37:54.414Z,21.81
2018-07-09T12:38:54.358Z,21.82
2018-07-09T12:39:54.256Z,21.81
2018-07-09T12:40:54.437Z,21.81
2018-07-09T12:41:54.409Z,21.82
2018-07-09T12:42:54.308Z,21.81
2018-07-09T12:43:54.843Z,21.81
2018-07-09T12:44:54.185Z,21.82
2018-07-09T12:45:54.235Z,21.81
2018-07-09T12:46:54.468Z,21.81
2018-07-09T12:47:54.207Z,21.81
2018-07-09T12:48:54.267Z,21.81
2018-07-09T12:49:54.395Z,21.81
2018-07-09T12:50:54.335Z,21.81
2018-07-09T12:51:54.232Z,21.81
2018-07-09T12:52:54.300Z,21.81
2018-07-09T12:53:54.271Z,21.81
2018-07-09T12:54:54.446Z,21.81
2018-07-09T12:55:54.327Z,21.81